METAR

METAR RPLL (MNL) – NINOY AQUINO INTERNATIONAL AIRPORT(MANILA INTERNATIONAL AIRPORT)
RPLL 242300Z 26011KT 7000 -RA BKN023 OVC090 27/26 Q1004 TEMPO 4000 SHRA RMK A2965
RPLL 242200Z 22010KT 180V250 9000 SCT023 OVC100 29/25 Q1003 NOSIG RMK A2962
RPLL 242100Z 22007KT 180V250 9000 SCT025 BKN100 29/25 Q1002 NOSIG RMK A2959
RPLL 242000Z 23007KT 200V280 8000 SCT023 OVC100 28/26 Q1002 NOSIG RMK A2959
RPLL 241900Z 22009KT 180V250 8000 BKN023 OVC100 28/26 Q1002 NOSIG RMK A2959
RPLL 241800Z 21005KT 180V250 8000 SCT025 OVC100 28/26 Q1001 NOSIG RMK A2956 BR AL QDS
RPLL 241700Z 22007G18KT 190V250 8000 BKN025 OVC100 28/26 Q1002 NOSIG RMK A2959 BR AL QDS
RPLL 241600Z 22009KT 190V260 9000 FEW025 BKN100 28/26 Q1003 RERA NOSIG RMK A2962 BR AL QDS
RPLL 241500Z 22007KT 9999 FEW023 BKN100 28/26 Q1003 NOSIG RMK A2962 BR ALQDS
RPLL 241400Z 22009KT 9999 FEW023 BKN100 29/25 Q1003 NOSIG RMK A2962
RPLL 241300Z 23007KT 9999 FEW023 BKN100 29/25 Q1003 NOSIG RMK A2962
RPLL 241200Z 24006KT 9999 FEW023 BKN100 29/25 Q1003 NOSIG RMK A2962
RPLL 241100Z 23006KT 210V270 9000 SCT023 OVC090 29/25 Q1002 NOSIG RMK A2959
RPLL 241000Z 23009KT 8999 SCT023 OVC090 29/25 Q1002 NOSIG RMK A2959
RPLL 240900Z 24010KT 9000 -RA SC023 OVC090 29/26 Q1002 NOSIG A2959
RPLL 240800Z 23009KT 9000 -RA SCT022 OVC080 28/26 Q1003 RERA NOSIG RMK A2962
RPLL 240700Z 24009KT 200V270 8000 RA SCT022 OVC080 27/26 Q1003 NOSIG RMK A2962
RPLL 240600Z VRB05KT 8000 RA FEW020CB BKN022 OVC080 25/25 Q1004 NOSIG RMK A2965 CB NW-N
RPLL 240500Z 27017G33KT 230V330 7000 RA BKN020 OVC080 25/25 Q1005 NOSIG RMK A2968
RPLL 240400Z 27005KT 240V310 9000 -RA FEW020CB BKN022 OVC080 27/26 Q1004 NOSIG RMK A2965 CB NE
RPLL 240200Z 18003KT 140V220 9000 +RA SCT022 OVC080 27/27 Q1004 RERA NOSIG RMK A2965
RPLL 240100Z 08003KT 8000 RA FEW020 SCT022 OVC080 26/26 Q1004 NOSIG RMK A2965 CB NE
RPLL 240000Z 16003KT 110V250 8000 RA FEW020CB SCT022 OVC080 26/26 Q1004 NOSIG RMK A2965 CB NW
RPLL 232200Z VRB02KT 8000 -RA FEW020CB SCT022 OVC080 25/25 Q1003 NOSIG RMK A2962 CB NW-N
RPLL 232127Z VRB03KT 6000 -RA BKN020 OVC070 25/25 Q1003 RERA NOSIG RMK A2962
RPLL 232100Z 03005KT 310V060 3000 +RA BKN018 OVC070 25/25 Q1003 RERA NOSIG RMK A2962
RPLL 232000Z 29009KT 270V330 3000 +RA BKN018 OVC070 25/25 Q1004 NOSIG RMK A2965
RPLL 231900Z 27011KT 230V320 3000 +RA BKN018 OVC070 26/26 Q1003 NOSIG RMK A2962
RPLL 231800Z VRB02KT 8000 -RA SCT023 OVC090 26/26 Q1003 NOSIG RMK A2962
RPLL 231700Z 22006KT 8000 -RA BKN022 OVC090 26/26 Q1004 NOSIG RMK A2965
RPLL 231600Z 25007KT 210V270 9000 FEW023 OVC100 27/26 Q1004 RERA NOSIG RMK A2965
RPLL 231500Z 25011KT 210V270 8000 -RA SCT023 OVC090 26/26 Q1005 NOSIG RMK A2968
RPLL 231400Z 24910KT 7000 -RA SCT020 OVC090 26/25 Q1005 NOSIG RMK A2968
RPLL 231300Z 24011KT 8000 -RA SCT022 OVC090 26/25 Q1005 NOSIG RMK A2968 METAR RPLB 231300Z 25017KT 5000 -RA BKN016 OVC070 26/24 Q1005 RMK A2958
RPLL 231200Z 25016G28KT 8000 -RA OVC090 27/26 Q1005 RMK A2968
RPLL 231100Z 25018KT 8000 -RA SCT22 OVC090 27/26 Q1004 NOSIG RMK A2965
RPLL 231000Z 24010KT 210V270 6000 -RA BKN020 OVC080 26/26 Q1004 RERA NOSIG RMK A2965
RPLL 230900Z 24011KT 200V280 5000 RA BKN020 OVC070 25/25 Q1004 NOSIG RMK A2965
RPLL 230800Z 24013KT 6000 -RA BKN020 OVC080 26/25 Q1003 NOSIG RMK A2962

RPVM (CEB) – MACTAN-CEBU INTERNATIONAL AIRPORT
RPVM 242300Z 23005KT 9999 FEW020 OVC100 28/25 Q1008 NOSIG RMK A2977
RPVM 242200Z 17004KT 9999 FEW020 BKN100 28/25 Q1007 NOSIG RMK A2974
RPVM 242100Z 20006KT 9999 FEW020 BKN100 28/25 Q1006 NOSIG RMK A2971
RPVM 242000Z 18004KT 9999 FEW020 BKN100 28/26 Q1006 NOSIG RMK A2971
RPVM 241900Z 20004KT 9999 SCT020 BKN100 28/26 Q1006 NOSIG RMK A2971
RPVM 241800Z 18006KT 9999 FEW020 OVC100 29/26 Q1007 NOSIG RMK A2974
RPVM 241700Z 22006KT 9999 FEW020 BKN100 28/26 Q1008 NOSIG RMK A2977
RPVM 241600Z 00000KT 9999 FEW020 BKN100 28/26 Q1008 NOSIG RMK A2977
RPVM 241500Z 16004KT 9999 FEW020 BKN100 29/26 Q1009 NOSIG RMK A2980
RPVM 241400Z 16002KT 9999 FEW020 BKN100 29/26 Q1009 NOSIG RMK A2980
RPVM 241300Z 19004KT 9999 FEW020 OVC100 29/26 Q1009 RERA NOSIG RMK A2980
RPVM 241200Z 19006KT 8000 -RA SCT020 OVC090 29/26 Q1009 NOSIG RMK A2980
RPVM 241100Z 19006KT 9999 FEW020 OVC100 29/26 Q1008 NOSIG RMK A2977
RPVM 241000Z 20008KT 9999 FEW020 OVC100 30/26 Q1007 NOSIG RMK A2974
RPVM 240900Z 20010KT 9999 FEW020 OVC100 30/25 Q1007 NOSIG RMK A2974
RPVM 240800Z 20006KT 9999 FEW020 OVC100 30/25 Q1007 NOSIG RMK A2974
RPVM 240700Z 22010KT 9999 OVC100 30/25 Q1007 NOSIG RMK A2974
RPVM 240600Z 20010KT 9999 FEW020 OVC100 31/26 Q1007 NOSIG RMK A2974
RPVM 240500Z 18010KT 9999 FEW020 OVC100 31/25 Q1007 NOSIG RMK A2974
RPVM 240400Z 27010KT 9999 FEW020 OVC100 30/25 Q1008 NOSIG RMK A2977
RPVM 240200Z 22009KT 9999 FEW020 BKN100 30/25 Q1009 NOSIG RMK A2980
RPVM 240100Z 23006KT 9999 FEW020 BKN100 29/25 Q1009 NOSIG RMK A2980
RPVM 240000Z 23010KT 9999 FEW020 BKN100 27/24 Q1009 NOSIG RMK A2980
RPVM 232200Z 21008KT 8000 -RA FEW020 OVC100 25/23 Q1009 NOSIG RMK A2980
RPVM 232100Z 20004KT 9999 FEW020 OVC100 25/23 Q1009 NOSIG RMK A2980
RPVM 232000Z 17006KT 7000 -SHRA FEW018CB OVC090 25/23 Q1008 NOSIG RMK A2977 CB/LTG OCNL NE
RPVM 231903Z 22016KT 5000 +RA SCT020 OVC080 29/25 Q1008 NOSIG RMK A2977
RPVM 231800Z 21006KT 9999 FEW020 BKN100 29/25 Q1009 NOSIG RMK A2980
RPVM 231700Z 19008KT 9999 FEW020 OVC100 29/25 Q1009 NOSIG RMK A2980- METAR RPMD 231700Z VRB02KT 9999 FEW016 BKN090 OVC260 27/27 Q1009 RMK A2980
RPVM 231600Z 18008KT 9999 FEW020 BKN100 29/25 Q1009 NOSIG RMK A2980
RPVM 231500Z 18008KT 9999 FEW020 BKN100 29/25 Q1010 NOSIG RMK A2983
RPVM 231400Z 20010KT 9999 FEW020 BKN100 29/25 Q1009 NOSIG RMK A2980
RPVM 231300Z 19008KT 9999 SCT020 OVC100 29/24 Q1009 NOSIG RMK A2980
RPVM 231200Z 20008KT 9999 FEW020 BKN100 29/24 Q1009 NOSIG RMK A2980
RPVM 231100Z 18012KT 9999 FEW020 OVC10 29/24 Q1009 NOSIG RMK A2980
RPVM 231000Z 22010KT 9999 SCT020 OVC10029/24 Q1008 NOSIG RMK A2977
RPVM 230900Z 18014KT 9999 FEW020 OVC100 30/24 Q1007 NOSIG RMK A2974
RPVM 230800Z 19006KT 9999 SCT020 OVC100 30/24 Q1007 NOSIG RMK A2974

RPLC (CRK) – CLARK INTERNATIONAL AIRPORT
RPLC 242300Z 14004KT 5000 -RA SCT019 OVC090 25/25 Q1003 RMK A2962
RPLC 242200Z 18006KT 4000 -RA SCT019 OVC090 25/25 Q1002 RMK A2959
RPLC 242100Z 32002KT 4000 -RA SCT019 OVC090 25/25 Q1002 RMK A2959
RPLC 242000Z 11002KT 3000 -RA BR BKN018 OVC080 24/24 Q1001 RMK A2956
RPLC 241900Z 04002KT 2000 +RA BR BKN017 OVC070 24/24 Q100 RMK A2956
RPLC 241800Z 32002KT 2000 -RA BR BKN018 OVC080 24/24 Q1001 RMK A2956
RPLC 241700Z 36004KT 2000 +RA BR BKN017 OVC070 24/24 Q1002 RMK A2959
RPLC 241600Z 36004KT 3000 -RA BR SCT019 OVC090 24/24 Q1003 RMK A2962
RPLC 241500Z 34008KT 3000 -RA BR SCT019 OVC090 24/24 Q1004 RMK A2962
RPLC 241400Z 34004KT 2000 -RA BR SCT017 OVC080 24/23 Q1003 RMK A2962
RPLC 241300Z 34004KT 2000 -RA BR SCT017 OVC080 24/23 Q1003 RMK A2962
RPLC 241200Z 34004KT 2000 -RA BR SCT017 OVC080 24/23 Q1003 RMK A2962
RPLC 241100Z 01002KT 5000 -RA SCT019 OVC090 24/23 Q1003 RMK A2962
RPLC 241000Z 33002KT 5000 -RA SCT019 OVC090 24/23 Q1003 RMK A2962
RPLC 240900Z 09004KT 4000 -RA SCT018 OVC090 23/23 Q1003 RMK A2962
RPLC 240800Z 11004KT 4000 -RA SCT018 OVC090 23/23 Q1003 RMK A2962
RPLC 240700Z 24004KT 2000 +R BKN017 OVC070 23/23 Q1004 RMK A2965
RPLC 240600Z 22010KT 3000 RA SCT017 OVC080 24/24 Q1005 RMK A2968
RPLC 240500Z 14006KT 4000 RA SCT018 OVC080 24/24 Q1004 RMK A2965
RPLC 240400Z 18002KT 4000 RA SCT018 OVC080 24/24 Q1005 RMK A2968
RPLC 240200Z 18006KT 2000 +RA BKN017 OVC070 24/24 Q1005 RMK A2968
RPLC 240100Z 09002KT 2000 +RA BKN017 OVC070 24/24 Q1005 RMK A2968
RPLC 240000Z 09004KT 3000 +RA BKN017 OVC070 24/24 Q1005 RMK A2368
RPLC 232200Z 12002KT 3000 +RA BKN017 OVC070 24/24 Q1003 RMK A2962
RPLC 232100Z 17008KT 4000 -RA SCT018 OVC080 24/24 Q1003 RMK A2962
RPLC 232000Z 17004KT 3000 RA SCT017 OVC070 25/24 Q1003 RMK A2962
RPLC 231900Z 10002KT 3000 RA SCT017 OVC070 25/24 Q1003 RMK A2962
RPLC 231800Z 35002KT 4000 -RA SCT018 OVC090 25/24 Q1004 RMK A2965
RPLC 231700Z 36002KT 4000 -RA SCT018 BKN090 25/24 Q1004 RMK A2965
RPLC 231600Z 36002KT 4000 -RA SCT018 OVC090 25/24 Q1005 RMK A2968
RPLC 231500Z 34004KT 3000 +RA BKN017 OVC070 25/24 Q1005 RMK A2968
RPLC 231400Z 36002KT 5000 -RA SCT019 BKN090 25/24 Q1005 RMK A2968
RPLC 231300Z 17004KT 6000 SCT020 BKN100 25/24 Q1004 RERA RMK A2965
RPLC 231200Z 17010KT 5000 -RA SCT019 OVC090 25/24 Q1004 RMK A2965
RPLC 231100Z 17010KT 5000 -RA SCT019 OVC090 26/24 Q1004 RMK A2965
RPLC 231000Z 17002KT 5000 -RA SCT019 OVC090 27/25 Q1004 RMK A2965
RPLC 230900Z 18007KT 5000 -RA SCT019 OVC100 27/24 Q1003 RMK A2962
RPLC 230800Z 18004KT 5000 -RA SCT020 OVC100 27/25 Q1002 RMK A2959

RPLB (SFS) – SUBIC BAY INTERNATIONAL AIRPORT
RPLB 242300Z 24018KT 3000 RA BKN016 OVC070 28/26 Q1003 RMK A2962 MOD RA INTMT
RPLB 242200Z 24015G25KT 3000 RA BKN016 OVC070 27/26 Q1002 RMK A2959
RPLB 242100Z 23019KT 3000 -RA BKN016 OVC070 28/26 Q1002 RMK A2959
RPLB 242000Z 24023G33KT 2000 RA BKN016 OVC070 27/26 Q1002 RMK A2959
RPLB 241900Z 24025G35KT 4000 -RA BKN017 OVC070 28/26 Q1001 RMK A2956
RPLB 241800Z 24021G32KT 4000 RA BKN016 OVC070 26/25 Q1002 RMK A2959
RPLB 241700Z 24022KT 4000 -RA BKN016 OVC070 28/26 Q1002 RMK A2959
RPLB 241600Z 23022G35KT 4000 RA BKN016 OVC070 27/25 Q1003 RMK A2962
RPLB 241500Z 23014KT 5000 -RA BKN016 OVC070 28/26 Q1003 RMK A2962
RPLB 241400Z 23017G27KT 5000 -RA BKN016 OVC070 29/26 Q1003 RMK A2962
RPLB 241300Z 24016KT 5000 -RA BKN016 OVC070 29/26 Q1003 RMK A2962
RPLB 241200Z 2201424KT 8000 -RA BKN018 OVC070 29/26 Q1003 RMK A2962
RPLB 241100Z 23014G26KT 8000 SCT018 OVC080 29/24 Q1003 NOSIG RMK A2962
RPLB 241000Z 21008KT 8000 BKN018 OVC070 28/26 Q1002 RERA RMK A2959
RPLB 240900Z 24018KT 6000 RA BKN017 OVC070 28/26 Q1002 RETS RMK A2950
RPLB 240800Z 22008KT 4000 RA BKN016 OVC070 27/26 Q1003 RETS RMK A2962
RPLB 240700Z 32011KT 280V360 2000 TSRA FEW015CB BKN016 OVC070 25/24 Q1004 RMK A2965 CB OHD
RPLB 240600Z 23012KT 4000 TSRA FEW016CB BKN017 OVC070 26/25 Q1004 RMK A2965 CB OHD
RPLB 240500Z 25015KT 2000 RA BKN017 OVC070 26/24 Q1004 RETS RMK A2965
RPLB 240400Z 27007KT 220V340 0900 +TSRA FEW017CB BKN016 OVC070 24/23 Q1006 RMK A2971 CB OHD
RPLB 240200Z 29011KT 270V330 2000 +TSRA FEW015CB BKN016 OVC070 25/24 Q1005 RMK A2968 CB OHD
RPLB 240100Z 30007KT 210V360 2000 +TSRA FEW015CB BKN016 OVC070 25/25 Q1005 RMK A2968 CB OHD
RPLB 240000Z 23014G24KT 2000 RA BKN016 OVC070 27/25 Q1004 RMK A2965
RPLB 232200Z 22014KT 2000 RA BKN016 OVC070 25/25 Q1004 RMK A2965
RPLB 232100Z 24021KT 1000 +RA BKN018 OVC070 26/25 Q1003 RMK A2962
RPLB 232000Z 22021KT 3000 RA BKN018 OVC070 26/25 Q1003 RMK A2962
RPLB 231900Z VRB02KT 9000 -RA BKN018 OVC070 25/24 Q1004 RMK A2965
RPLB 231800Z 24021G38KT 1000 +RA BKN016 OVC070 25/24 Q1004 RMK A2965
RPLB 231700Z 24010KT 220V280 3000 RA BKN018 OVC070 27/25 Q1004 RMK A2965
RPLB 231600Z 28007KT 240V320 9000 -RA SCT018 OVC070 27/24 Q1005 RMK A2968
RPLB 231500Z 23015KT 9999 SCT018 BKN080 27/24 Q1008 RMK A2971
RPLB 231400Z 23011KT 9999 -RA BKN016 OVC070 26/24 Q1006 RMK A2971
RPLB 231300Z 25017KT 5000 -RA BKN016 OVC070 26/24 Q1005 RMK A2958
RPLB 231200Z 23022KT 4000 RA SCT018 OVC070 27/25 Q1005 RMK A2968
RPLB 231100Z 23024KT 4000 RA BKN018 OVC070 27/26 Q1005 RMK A2968
RPLB 231000Z 25017KT 6000 RA BKN018 OVC070 28/25 Q1004 RMK A2965
RPLB 230900Z 23013KT 2000 RA BKN017 OVC070 27/25 Q1004 RMK A2965
RPLB 230800Z 24014KT 2000 RA BKN017 OVC070 26/24 Q1004 RMK A2965

RPLI (LAO) – LAOAG INTERNATIONAL AIRPORT
RPLI 242300Z 22017G30KT 7000 -RA FEW017CB BKN021 OVC070 30/28 Q0998 TEMPO VSVY LWRG 3000 +RA RMK A2944 CB SE
RPLI 242200Z 23016G26KT 8000 -RA FEW017CB BKN023 OVC080 29/27 Q0997 RMK A2944 CB NE/SE-S
RPLI 242100Z 20015G26KT 8000 -RA FEW017CB BKN018 OVC070 28/27 Q0997 RETS RMK A2944 CB NE/S
RPLI 242000Z 20011KT 8000 -RA FEW017CB BKN020 OVC070 27/26 Q0997 RETS RMK A2944 CB S/W-NW
RPLI 241900Z 18012KT 3000 VCTS RA FEW015CB BKN016 OVC070 26/25 Q0997 RMK A2944 CB S/NW-N
RPLI 241800Z 16009KT 8000 -TSRA FEW017CB BKN018 OVC070 25/25 Q0998 RMK A2974 CB SW NW-N
RPLI 241500Z 17009KT 8000 -RA SCT011 OVC070 25/24 Q1000 RMK A2953
RPLI 241400Z 19020KT 1000 +RA BKN008 OVC080 24/23 Q1000 RMK A2953
RPLI 241300Z 17011KT 7000 RA FEW015CB BKN016 OVC022 25/25 Q0999 RMK A2950 CB SW
RPLI 241200Z 17012KT 8000 -RA BKN018 OVC080 26/26 Q0999 RMK A2950
RPLI 241100Z 18015KT 8000 -RA FEW017CB BKN018 OVC080 26/25 Q0999 RMK A2950 CB NW
RPLI 241000Z 15011KT 1000 +RA FEW017CB OVC080 24/24 Q0998 RETS RMK A2947 CB NW
RPLI 240900Z 20018KT 22000 TSRA FEW017CB OVC090 25/24 Q0998 RMK A2950 CB SW-W
RPLI 240800Z 20016G26KT 2000 TSRA FEW017CB OVC080 26/25 Q0998 RMK A2947 CB SW-NW
RPLI 240700Z 18011KT 5000 -RA FEW017CB BKN018 OVC080 27/26 Q09998
RPLI 240600Z 18015KT 9000 TS FEW017CB BKN018 OVC080 26/25 Q0999 RERA RMK A2950 CB E W
RPLI 240500Z 19011KT 170V240 5000 VCTS RA FEW017CB BKN020 OVC080 26/25 Q0999 RMK A2950 CB E SSW
RPLI 240400Z 21016G30KT 180V250 5000 -RA BR FEW017CB SCT018 OVC080 26/25 Q0999 RMK A2950 CB SW
RPLI 240200Z 19019KT 5000 -RA BR FEW017CB BKN018 OVC080 27/26 Q1000 RMK A2953 CB SW
RPLI 240100Z 18013KT 4000 -RA BKN020 OVC080 27/26 Q0999 RMK A2950
RPLI 240000Z 18017KT 8000 -RA SCT018 OVC080 27/26 Q1009 RMK A2950
RPLI 232200Z 19012KT 7000 RA BKN020 OVC080 26/25 Q0999 NOSIG RMK A2950
RPLI 232100Z 19013G24KT 6000 VCTS RA FEW017CB BKN020 OVC080 26/25 Q0999 RMK A2950 CB NW
RPLI 232000Z 16014KT 6000 VCTS RA FEW017CB BKN020 OVC080 26/25 Q0999 RMK A2950 CB NW
RPLI 231900Z 17011KT 4000 RA FEW017CB BKN020 OVC080 27/26 Q0999 RMK A2950 CB SW
RPLI 231800Z 19012G23KT 170V230 6000 -RA FEW017CB BKN020 OVC080 25/24 Q1001 NOSIG RMK A2956 CB W SW W
RPLI 231500Z 14007KT 110V170 6000 VCTS RA FEW017CB BKN020 OVC080 25/25 Q1001 NOSIG RMK A2956 CB S NW
RPLI 231400Z 15008KT 4000 VCTS -RA FEW017CB BKN020 OVC080 25/25 Q1001 NOSIG RMK A2956 CB NW
RPLI 231300Z 20012KT 7000 -RA FEW017CB BKN020 OVC080 25/24 Q1000 TEMPO 1000 RMK A2953 CB S
RPLI 231200Z 20012KT 170V240 6000 RA FEW017CB BKN020 OVC080 25/25 Q1000 RMK A2953 CB SW
RPLI 231100Z 16010KT 8000 -RA FEW017CB BKN020 OVC080 25/25 Q0999 RM KA2950 CB SW -WNW
RPLI 231000Z 17011KT 8000 -RA FEW017CB OVC080 25/25 Q0999 TEMPO VSBY LWRG 4000 +RA RMK A2950 CB SW
RPLI 230900Z 16009KT 4000 RA FEW017CB OVC080 25/25 Q0999 TEMPO VSBY LWRG 1000 +RA RMK A2950 CB SW
RPLI 230800Z 16009KT 4000 RA FEW017CB OVC080 27/25 Q0999 TEMPO VSBY LWRG 1000 +RA RMK A2950

RPVP (PPS) – PUERTO PRINCESA INTERNATIONAL AIRPORT
RPVP 242300Z 24004KT 9999 FEW019 BKN250 26/25 Q1007 RMK A2974
RPVP 242200Z 24004KT 9999 FEW019 SCT240 26/24 Q1006 RMK A2971
RPVP 242100Z 24004KT 9999 FEW019 SCT240 26/25 Q1006 RMK A2971
RPVP 241800Z 27004KT 9999 FEW019 SCT240 27/25 Q1006 RMK A2971
RPVP 241500Z 18004KT 9999 FEW019 OVC080 28/26 Q1007 RMK A2974
RPVP 241200Z 21006KT 9999 FEW019 OVC080 29/25 Q1007 RESHRA RMK A2974
RPVP 241100Z 21008KT 9999 FEW019 OVC080 29/27 Q1007 RMK A29/27 Q1007 RETS RMK A2974
RPVP 241000Z 21006KT 9999 TS FEW017CB OVC080 30/26 Q1006 RMK A2971 CB SE-SSE
RPVP 240900Z 24010KT 9999 TS FEW017CB SCT019 OVC080 31/25 Q1006 RMK A2971 CB SE-S
RPVP 240800Z 21010KT 9999 SCT019 OVC080 31/27 Q1006 RMK A2971
RPVP 240700Z 21010KT 9999 SCT019 OVC080 31/26 Q1006 RMK A2971
RPVP 240600Z 21010KT 9999 SCT019 OVC080 32/23 Q1006 RMK A2971
RPVP 240500Z 18006KT 9999 SCT019 BKN080 32/27 Q1007 RMK A2974
RPVP 240400Z 27008KT 9999 FEW019 BKN080 32/25 Q1007 RMK A2974
RPVP 240200Z 18006KT 9999 FEW019 SCT250 31/24 Q1008 RMK A2977
RPVP 240100Z 21006KT 9999 FEW019 SCT250 29/25 Q1008 RMK A2977
RPVP 240000Z 21004KT 9999 FEW019 SCT080 OVC240 28/25 Q1007 RMK A2974
RPVP 232200Z 21006KT 9999 FEW019 OVC080 26/24 Q1007 RMK A2974
RPVP 232100Z 21004KT 9999 SCT019 OVC080 25/25 Q1007 RMK A2974
RPVP 231800Z 18004KT 9999 SCT019 OVC080 25/24 Q1007 RERA RMK A2974
RPVP 231500Z 18004KT 9999 -RA SCT019 OVC080 25/24 Q1009 RMK A2980
RPVP 231200Z 27005KT 9999 FEW019 BKN080 OVC240 28/24 Q1008 RMK A2977
RPVP 231100Z 27006KT 9999 FEW019 SCT080 OVC240 28/25 Q1008 RMK A2977
RPVP 231000Z 25006KT 9999 FEW019 BKN080 OVC240 28/25 Q1007 RESHRA RMK A2974
RPVP 230900Z 18006KT 9999 SCT019 BKN080 OVC240 30/26 Q1007 RMK A2974
RPVP 230800Z 18006KT 9999 FEW019 SCT080 OVC240 31/27 Q1006 RMK A2971

RPVD (DGT) – SIBULAN AIRPORT (DUMAGUETE AIRPORT)
RPVD 242200Z 22002KT 9999 FEW015 BKN070 27/24 Q1006 RMK A2971
RPVD 242100Z 18010KT 9999 FEW015 BKN070 28/24 Q1005 RMK A2968
RPVD 241800Z 18010KT 9999 FEW015 BKN070 28/25 Q1006 RMK A2971
RPVD 241500Z 25006KT 9999 FEW015 BKN070 28/25 Q1008 RMK A2977
RPVD 241200Z 32006KT 9999 FEW015 OVC220 29/26 Q1008 RMK A2977
RPVD 240900Z 20006KT 9999 FEW024 SCT070 BKN220 31/24 Q1006 RMK A2961
RPVD 240800Z 20006KT 9999 FEW024 SCT070 BKN220 32/24 Q1005 RMK A2968
RPVD 240700Z 20006KT 9999 FEW024 BKN070 32/24 Q1005 RMK A2968
RPVD 240600Z 07006KT 9999 FEW024 BKN070 32/25 Q1006 RMK A2971
RPVD 240500Z 04004KT 9999 FEW024 SCT080 BKN220 32/25 Q1006 RMK A2971
RPVD 240400Z 04006KT 9999 FEW024 SCT070 BKN220 31/24 Q1007 RMK A2974
RPVD 240200Z 34008KT 9999 FEW024 BKN070 30/24 Q1007 RMK A2974
RPVD 240100Z 07008KT 9999 FEW024 BKN070 29/24 Q1007 RMK A2974
RPVD 240000Z 34004KT 9999 FEW024 SCT070 OVC220 28/24 Q1008 RMK A2977
RPVD 232100Z 16004KT 9999 FEW015 BKN070 27/24 Q1008 RMK A2977
RPVD 231800Z 00000KT 9999 FEW015 OVC220 27/24 Q1008 RMK A2977
RPVD 231500Z 22008KT 9999 FEW015 OVC80 29/25 Q1008 RMK A2977
RPVD 231200Z 25004KT 9999 FEW015 BKN070 29/24 Q1008 RMK A2977
RPVD 230900Z 18010KT 9999 FEW024 BKN070 OVC220 30/24 Q1006 RMK A2971
RPVD 230800Z 20010KT 9999 FEW024 SCT070 OVC220 30/24 Q1006 RMK A2971

RPMR (GES) – GENERAL SANTOS INTERNATIONAL AIRPORT
RPMR 240900Z 18008KT 9999 FEW018 BKN080 29/22 Q10008 RMK A2977
RPMR 240800Z 17010KT 9999 FEW018CB BKN080 31/22 Q1007 RMK A2974 CB N NW
RPMR 240700Z 15011K T9999 FEW018 BKN080 31/23 Q1007 RMK A2974
RPMR 240600Z 07003KT 360V160 9999 FEW018 BKN080 31/22 Q1008 RMK A2977
RPMR 240500Z 12004KT 090V150 9999 FEW018 BKN080 30/22 Q1009 RMK A2980
RPMR 240400Z VRB04KT 9999 FEW018 BKN080 30/22 Q1010 RMK A2983
RPMR 240200Z VRB02KT 9999 FEW018 SCT080 28/24 Q1011 RMK A2985
RPMR 240100Z VRB02KT 9999 SCT017 OVC080 27/24 Q1011 RMK A2985
RPMR 240000Z VRB02KT 9999 SCT017 OVC080 26/24 Q1012 RMK A2988
RPMR 230900Z 04005KT 310V010 9999 FEW018 OVC080 29/24 Q1009 RMK A2980
RPMR 230800Z 03003KT 340V090 9999 FEW018 SCT080 BKN250 31/24 Q1008 RMK A2977

RPMD (DVO) – FRANCISCO BANGOY INTERNATIONAL AIRPORT
RPMD 242300Z 26004KT 9999 VCSH FEW015 BKN090 BKN260 28/26 Q1008 RMK A2977 VCSH SE-S
RPMD 242200Z 26003KT 9999 VCSH FEW015 SCT090 BKN260 27/27 Q1007 RMK A2974 VCSH NNW
RPMD 242100Z 19003KT 9999 FEW016 SCT090 BKN260 28/24 Q1007 RMK A2974
RPMD 242000Z 16004KT 110V210 9999 FEW016 SCT090 BKN260 28/25 Q1007 RMK A2974
RPMD 241900Z 12003KT 090V150 9999 FEW016 SCT090 OVC260 28/26 Q1008 RMK A2977
RPMD 241800Z 16005KT 9999 FEW016 BKN090 OVC260 28/26 Q1008 RMK A2977
RPMD 241600Z 15004KT 120V180 9999 FEW016 BKN090 OVC260 28/26 Q1006 RMK A2980
RPMD 241500Z 15006KT 9999 FEW016 BKN090 OVC260 29/26 Q1010 RMK A2983
RPMD 241400Z 15003KT 120V180 9999 FEW016 BKN090 OVC260 29/25 Q1010 RMK A2983
RPMD 241300Z 15004KT 110V190 9999 FEW016 BKN090 OVC260 29/25 Q1010 RMK A2983
RPMD 241200Z 16006KT 130V200 9999 FEW016 BKN090 OVC260 29/25 Q1009 RMK A2980
RPMD 241100Z 17010KT 9999 FEW016 BKN090 OVC260 29/25 Q1008 RMK A2977
RPMD 241000Z 18009KT 9999 FEW016 BKN090 OVC260 29/24 Q1008 RMK A2977
RPMD 240900Z 18010KT 9999 FEW016 BKN090 30/24 Q1008 RMKA2977
RPMD 240800Z 19010KT 9999 FEW016 BKN090 31/24 Q1007 RMK A2974
RPMD 240700Z 18011KT 150V210 9999 FEW020 31/23 Q1007 RMK A2974
RPMD 240600Z 18008KT 150V210 9999 FEW020 SCT290 32/22 Q1007 RMK A2974
RPMD 240500Z 17008KT 140V200 9999 FEW020 SCT290 32/23 Q1008 RMK A2977
RPMD 240400Z 18010KT 9999 FEW020 SCT290 31/24 Q1008 RMK A2977
RPMD 240200Z 17005KT 110V230 9999 FEW020 SCT290 31/24 Q1009 RMK A2980
RPMD 240100Z VRB02KT 9999 FEW020 OVC290 30/23 Q1010 RMK A2983 SOLAR HALO
RPMD 240000Z VRB02KT 9999 FEW016 BKN260 29/23 Q1011 RMK A2985
RPMD 232200Z VRB01KT 9999 FEW016 BKN090 26/22 Q1009 RMK A2980
RPMD 232100Z VRB02KT 9999 FEW016 BKN090 BKN260 27/22 Q1009 RMK A2980
RPMD 232000Z 00000KT 9999 FEW016 BKN090 OVC260 26/26 Q1008 RMK A2977
RPMD 231900Z VRB02KT 9999 FEW016 BKN090 OVC260 27/27 Q1008 RMK A2977
RPMD 231800Z 03003KT 340V060 9999 FEW016 BKN090 OVC260 27/26 Q1008 RMK A2977
RPMD 231700Z VRB02KT 9999 FEW016 BKN090 OVC260 27/27 Q1009 RMK A2980
RPMD 231600Z 04004KT 360V070 9999 FEW016 BKN090 OVC260 27/27 Q1009 RMK A2980
RPMD 231500Z VRB02KT 9999 FEW016 SCT090 OVC260 29/24 Q1010 RMK A2983
RPMD 231400Z 15003KT 070V220 9999 FEW016 BKN090 BKN260 29/25 Q1011 RMK A2985
RPMD 231300Z 08003KT 050V140 9999 FEW016 BKN090 OVC260 29/25 Q1010 RMK A2983
RPMD 231200Z VRB02KT 9999 FEW016 BKN090 BKN260 29/25 Q1010 RMK A2983
RPMD 231100Z 17003KT 140V200 9999 FEW016 SCT090 BKN260 29/24 Q1009 RMK A2980
RPMD 231000Z 14003KT 9999 FEW016 BKN090 OVC260 29/23 Q1009 RMK A2980
RPMD 230900Z 18002KT 9999 FEW016 SCT090 OVC260 30/23 Q1008 RMK A2977
RPMD 230800Z 19006KT 150V220 9999 FEW016 OVC260 31/23 Q1007 RMK A2974

RPMZ (ZAM) – ZAMBOANGA INTERNATIONAL AIRPORT
RPMZ 242300Z VRB02KT 9999 FEW017 BKN090 26/23 Q1008 RMK A2977
RPMZ 242200Z 06002KT 9999 FEW017 BKN090 24/23 Q1007 RMK A2974
RPMZ 242100Z VRB01KT 9999 FEW017 BKN090 25/23 Q1007 RMK A2974
RPMZ 241500Z 31004KT 9999 FEW017 BKN090 27/24 Q1010 RMK A2983
RPMZ 241200Z 27004KT 9999 FEW016 SCT090 BKN300 27/24 Q1009 RMK A2980
RPMZ 241000Z 26005KT 240V300 9000 FEW017 SCT090 BKN300 28/25 Q1008 RMK A2977
RPMZ 240900Z 04003KT 010V080 9999 BKN016 BKN300 29/25 Q1008 RMK A2977
RPMZ 240800Z 08005KT 9999 SCT016 BKN300 29/26 Q1007 RMK A2974
RPMZ 240700Z 12006KT 080V170 9999 BKN016 BKN300 30/25 Q1007 RMK A2974
RPMZ 240600Z 09010KT 070V130 9999 SCT016 SCT100 BKN300 31/26 Q1007 RMK A2974
RPMZ 240500Z 10009KT 060V140 9999 SCT016 BKN300 30/26 Q1008 RMK A2977
RPMZ 240400Z 11008KT 060V150 9999 SCT016 BKN300 31/26 Q1008 RMK A2977
RPMZ 240200Z 09006KT 070V160 9999 SCT016 BKN300 30/25 Q1009 RMK A2980
RPMZ 240100Z 08005KT 050V110 9999 FEW017 BKN300 29/25 Q1010 RMK A2983
RPMZ 240000Z 23010KT 9999 FEW020 BKN100 27/24 Q1009 NOSIG RMK A2980
RPMZ 232200Z 00000KT 9999 FEW016CB OVC090 25/24 Q1010 RMK A2983 CB NW-N
RPMZ 232100Z 06003KT 9999 FEW016CB FEW017 OVC090 25/24 Q1009 RMK A2980 CB NW-N
RPMZ 231800Z VRB01KT 9999 SCT016CB OVC090 25/23 Q1009 RMK A2980 CB NW-NE SE
RPMZ 231500Z 08003KT 9999 FEW016CB OVC090 25/23 Q1010 RMK A2983 CB E-S
RPMZ 231200Z01003KT 9000 -SHRA FEW016CB OVC090 26/24 Q1010 RMK A2983 CB SE-S OHD
RPMZ 231000Z 27005KT 9999 FEW016CB OVC090 27/24 Q1010 RMK A2983 CB SE -SW
RPMZ 230900Z 26007KT 9000 SCT016CB OVC090 27/24 Q1009 RSHRA RMK A2980 CB ALQDS OHD
RPMZ 230800Z 25008KT 200V290 9000 -SHRA SCT016CB OVC090 27/24 Q1009 RMK A2980 CB ALQDS OHD

RPLL 190000Z 16006KT 060V160 9999 SCT025 BKN100 29/26 Q1008 NOSIG RMK A2977=